Tropical Cyclones
[Index]
Main Index Home Page Stock Weather Photos Extreme Storms Discussion Storm News and Storm Chasing Reports Tropical Cyclones / Hurricanes / Typhoons Weather Data and Links Wild Fires / Bushfires Weather Observation Techniques Weather Picture Catalogue Tornado Pictures and Reports Stock Video Footage and DVDs for sale
Season 1960-1961 Tropical Cyclone ISIS Track Map
Season 1960-1961 Summaries: [BoM-AU] [JTWC-AU] [JTWC-SIO] [JTWC-SPAC] [JTWC-SH]
<<- Previous TC | JTWC 1960-1961 Season | Next TC ->>

click for intensity scale information  Lat/long Grid: Show Hide

 Date Labels: Show Hide

Joint Typhoon Warning Centre Cyclone Data

Name: ISIS
Number: 421 / 6127

15 Mar 1961 12:00 UTC to 24 Mar 1961 00:00 UTC

    date/time    lat    long     hPa   cat  kts
1961-03-15 12   13.0   163.6                              
1961-03-15 18   13.3   164.3                              
1961-03-16 00   13.6   164.7                              
1961-03-16 06   13.8   164.9                              
1961-03-16 12   14.1   165.1                              
1961-03-16 18   14.3   165.4                              
1961-03-17 00   14.6   165.6                              
1961-03-17 06   14.8   165.7                              
1961-03-17 12   15.1   165.7                              
1961-03-17 18   15.3   165.7                              
1961-03-18 00   15.5   165.7                              
1961-03-18 06   16.4   165.5                              
1961-03-18 12   17.5   165.0                              
1961-03-18 18   18.2   164.4                              
1961-03-19 00   19.0   163.6                              
1961-03-19 06   19.8   162.3                              
1961-03-19 12   20.6   161.0                              
1961-03-19 18   21.5   159.9                              
1961-03-20 00   22.7   159.6                              
1961-03-20 06   24.3   159.9                              
1961-03-20 12   26.0   160.3                              
1961-03-20 18   27.4   160.6                              
1961-03-21 00   28.8   161.0                              
1961-03-21 06   30.4   160.1                              
1961-03-21 12   32.0   159.1                              
1961-03-21 18   33.8   159.5                              
1961-03-22 00   35.5   160.2                              
1961-03-22 06   36.5   161.1                              
1961-03-22 12   37.2   162.0                              
1961-03-22 18   37.9   162.8                              
1961-03-23 00   38.6   163.6                              
1961-03-23 06   40.4   165.0                              
1961-03-23 12   42.4   167.0                              
1961-03-23 18   43.6   169.2                              
1961-03-24 00   44.4   171.8                              
Winds are 1-min average.

Tropical cyclone tracks developed by Michael Bath using data from the Joint Typhoon Warning Centre Best Tracks and Google Maps.


[Australian Severe Weather index] [Copyright Notice] [Email Contacts] [Search This Site] [Privacy Policy]
Document: tropical_cyclone_isis.htm Updated: 18 September 2016